createdAt,value
2022-08-17T00:00:43.099Z,3.90
2022-08-17T00:03:23.079Z,3.70
2022-08-17T00:06:30.917Z,4.00
2022-08-17T00:09:38.490Z,4.00
2022-08-17T00:12:46.834Z,3.60
2022-08-17T00:15:54.703Z,4.50
2022-08-17T00:19:08.309Z,4.00
2022-08-17T00:22:34.430Z,3.60
2022-08-17T00:25:11.123Z,4.00
2022-08-17T00:28:19.337Z,3.80
2022-08-17T00:31:28.858Z,3.80
2022-08-17T00:34:36.309Z,3.80
2022-08-17T00:37:44.587Z,4.10
2022-08-17T00:40:55.996Z,3.70
2022-08-17T00:43:55.960Z,4.50
2022-08-17T00:47:04.610Z,4.60
2022-08-17T00:50:13.755Z,4.30
2022-08-17T00:53:21.561Z,4.00
2022-08-17T00:56:31.016Z,3.70
2022-08-17T00:59:38.594Z,4.30
2022-08-17T01:02:46.447Z,4.30
2022-08-17T01:05:54.527Z,4.10
2022-08-17T01:09:02.891Z,4.00
2022-08-17T01:12:10.848Z,3.80
2022-08-17T01:15:18.580Z,4.30
2022-08-17T01:18:26.724Z,3.80
2022-08-17T01:21:34.495Z,3.90
2022-08-17T01:24:42.252Z,4.40
2022-08-17T01:27:50.314Z,4.10
2022-08-17T01:30:59.540Z,3.80
2022-08-17T01:34:07.996Z,4.10
2022-08-17T01:37:16.319Z,3.90
2022-08-17T01:40:23.925Z,3.80
2022-08-17T01:43:32.146Z,3.90
2022-08-17T01:46:40.418Z,4.30
2022-08-17T01:49:47.904Z,4.30
2022-08-17T01:52:56.082Z,4.30
2022-08-17T01:56:03.886Z,4.30
2022-08-17T01:59:11.904Z,4.40
2022-08-17T02:02:30.638Z,4.20
2022-08-17T02:05:25.499Z,4.40
2022-08-17T02:08:39.547Z,5.20
2022-08-17T02:11:38.439Z,4.90
2022-08-17T02:14:46.214Z,4.60
2022-08-17T02:17:54.705Z,4.70
2022-08-17T02:21:03.080Z,4.60
2022-08-17T02:24:10.905Z,4.50
2022-08-17T02:27:18.923Z,4.40
2022-08-17T02:31:02.094Z,4.60
2022-08-17T02:33:42.128Z,4.70
2022-08-17T02:36:37.848Z,4.70
2022-08-17T02:39:45.360Z,4.40
2022-08-17T02:42:53.199Z,4.70
2022-08-17T02:46:01.078Z,4.40
2022-08-17T02:49:09.363Z,4.10
2022-08-17T02:52:17.071Z,4.20
2022-08-17T02:55:22.370Z,4.70
2022-08-17T02:58:35.075Z,4.30
2022-08-17T03:01:33.258Z,4.90
2022-08-17T03:04:41.156Z,4.70
2022-08-17T03:07:49.305Z,4.90
2022-08-17T03:10:56.686Z,4.50
2022-08-17T03:14:04.827Z,4.60
2022-08-17T03:17:17.182Z,4.80
2022-08-17T03:20:14.177Z,4.90
2022-08-17T03:23:23.974Z,5.10
2022-08-17T03:26:33.431Z,4.80
2022-08-17T03:29:40.953Z,4.50
2022-08-17T03:32:48.950Z,5.10
2022-08-17T03:35:56.400Z,5.00
2022-08-17T03:39:04.666Z,5.20
2022-08-17T03:42:14.326Z,5.40
2022-08-17T03:45:17.767Z,5.10
2022-08-17T03:48:26.101Z,5.40
2022-08-17T03:51:34.410Z,4.70
2022-08-17T03:54:41.750Z,5.40
2022-08-17T03:57:49.971Z,5.60
2022-08-17T04:00:57.844Z,4.60
2022-08-17T04:04:05.572Z,5.90
2022-08-17T04:07:13.422Z,5.20
2022-08-17T04:10:25.944Z,5.40
2022-08-17T04:13:24.770Z,5.50
2022-08-17T04:16:32.997Z,5.60
2022-08-17T04:19:41.317Z,5.00
2022-08-17T04:22:49.281Z,4.80
2022-08-17T04:25:59.382Z,4.80
2022-08-17T04:29:07.350Z,5.10
2022-08-17T04:32:14.841Z,4.60
2022-08-17T04:35:23.178Z,5.20
2022-08-17T04:38:31.277Z,4.90
2022-08-17T04:41:38.575Z,4.60
2022-08-17T04:44:40.486Z,4.80
2022-08-17T04:47:47.836Z,4.40
2022-08-17T04:50:55.817Z,4.70
2022-08-17T04:54:03.888Z,4.70
2022-08-17T04:57:11.268Z,5.30
2022-08-17T05:00:19.463Z,5.20
2022-08-17T05:03:27.229Z,5.00
2022-08-17T05:06:34.973Z,4.70
2022-08-17T05:09:42.904Z,4.70
2022-08-17T05:12:50.765Z,5.40
2022-08-17T05:15:58.468Z,4.50
2022-08-17T05:19:06.945Z,4.50
2022-08-17T05:22:14.766Z,4.60
2022-08-17T05:25:25.643Z,4.60
2022-08-17T05:28:26.603Z,4.50
2022-08-17T05:31:24.571Z,4.40
2022-08-17T05:34:32.449Z,4.20
2022-08-17T05:37:40.273Z,4.30
2022-08-17T05:40:48.125Z,4.90
2022-08-17T05:43:56.567Z,3.90
2022-08-17T05:47:04.356Z,4.30
2022-08-17T05:50:12.376Z,4.10
2022-08-17T05:53:15.079Z,4.20
2022-08-17T05:56:29.765Z,5.20
2022-08-17T05:59:27.640Z,5.40
2022-08-17T06:02:35.071Z,4.20
2022-08-17T06:05:43.302Z,4.50
2022-08-17T06:08:51.434Z,3.90
2022-08-17T06:11:59.592Z,4.10
2022-08-17T06:15:08.047Z,4.10
2022-08-17T06:18:18.990Z,4.70
2022-08-17T06:21:16.506Z,4.30
2022-08-17T06:24:24.595Z,4.60
2022-08-17T06:27:31.961Z,4.80
2022-08-17T06:30:59.251Z,4.40
2022-08-17T06:33:45.223Z,3.80
2022-08-17T06:36:53.072Z,3.90
2022-08-17T06:40:02.053Z,4.00
2022-08-17T06:43:10.205Z,4.00
2022-08-17T06:46:18.326Z,4.60
2022-08-17T06:49:26.200Z,3.90
2022-08-17T06:52:45.584Z,4.10
2022-08-17T06:55:39.811Z,4.00
2022-08-17T06:58:47.402Z,4.50
2022-08-17T07:01:55.573Z,4.70
2022-08-17T07:05:03.214Z,4.30
2022-08-17T07:08:11.384Z,4.60
2022-08-17T07:11:19.516Z,4.40
2022-08-17T07:14:26.868Z,4.60
2022-08-17T07:17:46.934Z,4.40
2022-08-17T07:20:39.680Z,4.70
2022-08-17T07:23:47.842Z,4.00
2022-08-17T07:26:56.182Z,3.80
2022-08-17T07:30:06.851Z,4.20
2022-08-17T07:33:07.615Z,3.90
2022-08-17T07:36:09.945Z,3.80
2022-08-17T07:39:17.756Z,3.60
2022-08-17T07:42:25.388Z,3.30
2022-08-17T07:45:33.098Z,3.70
2022-08-17T07:48:41.290Z,3.20
2022-08-17T07:51:48.924Z,3.70
2022-08-17T07:54:56.753Z,3.20
2022-08-17T07:58:04.445Z,3.50
2022-08-17T08:01:11.856Z,3.70
2022-08-17T08:04:49.680Z,3.40
2022-08-17T08:07:27.069Z,2.90
2022-08-17T08:10:34.491Z,2.90
2022-08-17T08:13:42.896Z,2.70
2022-08-17T08:16:50.207Z,2.70
2022-08-17T08:19:58.243Z,2.00
2022-08-17T08:23:06.367Z,2.60
2022-08-17T08:26:17.975Z,2.40
2022-08-17T08:29:15.964Z,2.40
2022-08-17T08:32:25.011Z,3.00
2022-08-17T08:35:32.609Z,2.60
2022-08-17T08:38:40.907Z,2.50
2022-08-17T08:41:48.721Z,2.70
2022-08-17T08:45:00.923Z,2.80
2022-08-17T08:48:05.282Z,2.50
2022-08-17T08:51:02.723Z,2.60
2022-08-17T08:54:10.379Z,2.90
2022-08-17T08:57:32.843Z,2.50
2022-08-17T09:00:23.687Z,3.10
2022-08-17T09:03:51.754Z,2.60
2022-08-17T09:06:39.301Z,3.10
2022-08-17T09:09:37.582Z,3.30
2022-08-17T09:12:45.973Z,3.10
2022-08-17T09:15:54.976Z,3.00
2022-08-17T09:19:04.720Z,2.40
2022-08-17T09:22:13.168Z,2.60
2022-08-17T09:25:21.890Z,2.90
2022-08-17T09:28:30.134Z,2.40
2022-08-17T09:31:47.093Z,2.10
2022-08-17T09:34:47.028Z,2.30
2022-08-17T09:37:45.507Z,2.80
2022-08-17T09:40:53.767Z,2.00
2022-08-17T09:44:01.577Z,2.20
2022-08-17T09:47:09.609Z,2.30
2022-08-17T09:50:17.452Z,2.20
2022-08-17T09:53:25.669Z,2.40
2022-08-17T09:56:33.617Z,2.00
2022-08-17T09:59:41.878Z,1.60
2022-08-17T10:02:49.839Z,1.90
2022-08-17T10:05:57.868Z,1.60
2022-08-17T10:09:06.117Z,2.00
2022-08-17T10:12:13.622Z,1.20
2022-08-17T10:15:14.922Z,1.00
2022-08-17T10:18:25.570Z,1.10
2022-08-17T10:21:29.251Z,1.10
2022-08-17T10:24:37.115Z,1.20
2022-08-17T10:27:44.899Z,1.50
2022-08-17T10:31:05.297Z,1.20
2022-08-17T10:33:58.411Z,1.20
2022-08-17T10:37:06.302Z,1.20
2022-08-17T10:40:14.149Z,1.10
2022-08-17T10:43:22.144Z,1.20
2022-08-17T10:46:31.168Z,0.80
2022-08-17T10:49:28.038Z,1.30
2022-08-17T10:52:36.358Z,1.40
2022-08-17T10:55:44.507Z,1.40
2022-08-17T10:58:53.503Z,1.00
2022-08-17T11:02:02.013Z,1.10
2022-08-17T11:05:10.324Z,1.00
2022-08-17T11:08:18.485Z,1.00
2022-08-17T11:11:27.786Z,1.00
2022-08-17T11:14:36.329Z,1.10
2022-08-17T11:17:44.780Z,1.30
2022-08-17T11:20:52.677Z,1.00
2022-08-17T11:24:00.961Z,0.90
2022-08-17T11:27:08.764Z,1.10
2022-08-17T11:30:09.814Z,1.30
2022-08-17T11:33:17.716Z,1.10
2022-08-17T11:36:19.207Z,1.20
2022-08-17T11:39:27.782Z,1.10
2022-08-17T11:42:35.131Z,1.10
2022-08-17T11:45:43.409Z,1.30
2022-08-17T11:48:50.805Z,1.10
2022-08-17T11:51:59.054Z,1.10
2022-08-17T11:55:33.546Z,1.00
2022-08-17T11:58:12.457Z,1.20
2022-08-17T12:01:20.750Z,1.00
2022-08-17T12:04:28.293Z,1.20
2022-08-17T12:07:36.668Z,1.10
2022-08-17T12:10:45.082Z,1.40
2022-08-17T12:13:52.605Z,1.10
2022-08-17T12:17:01.035Z,1.40
2022-08-17T12:20:08.934Z,1.10
2022-08-17T12:23:16.619Z,1.00
2022-08-17T12:26:24.929Z,1.20
2022-08-17T12:29:38.793Z,1.10
2022-08-17T12:32:36.717Z,1.10
2022-08-17T12:35:45.085Z,1.00
2022-08-17T12:38:53.465Z,1.10
2022-08-17T12:42:02.874Z,1.00
2022-08-17T12:45:11.857Z,1.20
2022-08-17T12:48:19.931Z,1.00
2022-08-17T12:51:28.162Z,1.00
2022-08-17T12:54:36.520Z,0.80
2022-08-17T12:57:44.662Z,1.10
2022-08-17T13:00:53.503Z,1.10
2022-08-17T13:04:01.151Z,1.30
2022-08-17T13:07:10.168Z,1.30
2022-08-17T13:10:18.400Z,1.30
2022-08-17T13:13:26.712Z,1.10
2022-08-17T13:16:34.903Z,1.00
2022-08-17T13:19:43.214Z,1.40
2022-08-17T13:22:51.689Z,1.30
2022-08-17T13:26:00.557Z,1.10
2022-08-17T13:29:08.890Z,1.00
2022-08-17T13:32:19.984Z,1.10
2022-08-17T13:35:38.878Z,1.50
2022-08-17T13:38:34.115Z,1.40
2022-08-17T13:41:42.575Z,1.00
2022-08-17T13:44:50.358Z,1.30
2022-08-17T13:47:58.888Z,1.60
2022-08-17T13:51:07.168Z,1.40
2022-08-17T13:54:15.714Z,1.30
2022-08-17T13:57:24.643Z,1.30
2022-08-17T14:00:33.015Z,1.30
2022-08-17T14:03:41.303Z,1.40
2022-08-17T14:06:53.252Z,1.50
2022-08-17T14:09:47.408Z,2.10
2022-08-17T14:12:55.678Z,1.60
2022-08-17T14:16:04.359Z,1.40
2022-08-17T14:19:12.163Z,1.50
2022-08-17T14:22:21.004Z,1.50
2022-08-17T14:25:28.766Z,1.50
2022-08-17T14:28:37.356Z,1.50
2022-08-17T14:31:40.419Z,1.30
2022-08-17T14:34:50.638Z,1.70
2022-08-17T14:37:59.442Z,1.60
2022-08-17T14:41:07.611Z,1.40
2022-08-17T14:44:15.853Z,1.70
2022-08-17T14:47:24.175Z,1.50
2022-08-17T14:50:35.466Z,1.70
2022-08-17T14:53:33.388Z,1.50
2022-08-17T14:56:42.246Z,1.50
2022-08-17T14:59:42.308Z,1.20
2022-08-17T15:02:51.002Z,1.30
2022-08-17T15:05:58.924Z,1.40
2022-08-17T15:09:07.608Z,1.40
2022-08-17T15:12:15.919Z,1.30
2022-08-17T15:15:24.136Z,1.30
2022-08-17T15:18:32.960Z,1.30
2022-08-17T15:21:41.213Z,1.20
2022-08-17T15:24:49.481Z,1.50
2022-08-17T15:27:57.915Z,1.60
2022-08-17T15:31:06.230Z,1.70
2022-08-17T15:34:14.527Z,1.60
2022-08-17T15:37:23.539Z,1.60
2022-08-17T15:40:31.972Z,1.50
2022-08-17T15:43:34.054Z,1.60
2022-08-17T15:46:42.964Z,1.30
2022-08-17T15:49:51.227Z,1.50
2022-08-17T15:53:00.667Z,1.40
2022-08-17T15:56:08.351Z,1.50
2022-08-17T15:59:17.048Z,1.20
2022-08-17T16:03:22.921Z,1.20
2022-08-17T16:05:31.361Z,1.20
2022-08-17T16:08:40.418Z,1.50
2022-08-17T16:11:53.771Z,1.60
2022-08-17T16:14:53.240Z,1.40
2022-08-17T16:18:01.397Z,1.60
2022-08-17T16:21:09.645Z,1.80
2022-08-17T16:24:18.532Z,1.60
2022-08-17T16:27:26.762Z,1.90
2022-08-17T16:30:35.252Z,2.00
2022-08-17T16:33:43.484Z,1.70
2022-08-17T16:36:50.505Z,1.60
2022-08-17T16:39:53.991Z,1.70
2022-08-17T16:43:02.098Z,1.60
2022-08-17T16:46:10.376Z,1.60
2022-08-17T16:49:34.449Z,1.70
2022-08-17T16:52:32.476Z,1.60
2022-08-17T16:55:29.669Z,1.90
2022-08-17T16:58:38.073Z,2.30
2022-08-17T17:01:48.442Z,1.90
2022-08-17T17:04:56.929Z,1.80
2022-08-17T17:08:05.732Z,2.10
2022-08-17T17:11:14.411Z,1.90
2022-08-17T17:14:22.613Z,2.00
2022-08-17T17:17:30.603Z,2.00
2022-08-17T17:20:38.514Z,2.30
2022-08-17T17:23:46.855Z,2.40
2022-08-17T17:26:55.407Z,2.10
2022-08-17T17:30:03.192Z,2.30
2022-08-17T17:33:11.835Z,2.10
2022-08-17T17:36:19.403Z,2.00
2022-08-17T17:39:27.312Z,2.30
2022-08-17T17:42:35.362Z,2.10
2022-08-17T17:45:43.051Z,2.20
2022-08-17T17:48:51.098Z,2.10
2022-08-17T17:52:08.692Z,2.20
2022-08-17T17:55:03.929Z,2.00
2022-08-17T17:58:12.044Z,2.20
2022-08-17T18:01:20.043Z,2.10
2022-08-17T18:04:28.118Z,2.10
2022-08-17T18:07:36.103Z,2.80
2022-08-17T18:10:44.005Z,2.50
2022-08-17T18:13:46.239Z,2.10
2022-08-17T18:16:55.632Z,2.40
2022-08-17T18:20:03.714Z,2.40
2022-08-17T18:23:11.629Z,2.40
2022-08-17T18:26:19.086Z,2.60
2022-08-17T18:29:27.225Z,2.50
2022-08-17T18:32:35.716Z,2.40
2022-08-17T18:35:43.251Z,2.60
2022-08-17T18:38:51.656Z,2.80
2022-08-17T18:41:58.970Z,3.10
2022-08-17T18:45:07.072Z,2.80
2022-08-17T18:48:15.419Z,2.70
2022-08-17T18:51:26.291Z,2.70
2022-08-17T18:54:28.746Z,2.80
2022-08-17T18:57:36.638Z,2.90
2022-08-17T19:00:44.928Z,2.50
2022-08-17T19:03:53.169Z,2.70
2022-08-17T19:07:01.333Z,2.70
2022-08-17T19:10:09.351Z,2.70
2022-08-17T19:13:24.307Z,3.00
2022-08-17T19:16:22.965Z,3.00
2022-08-17T19:19:30.695Z,2.70
2022-08-17T19:22:39.136Z,2.70
2022-08-17T19:25:47.067Z,2.70
2022-08-17T19:28:55.748Z,2.30
2022-08-17T19:32:03.759Z,2.80
2022-08-17T19:35:16.550Z,2.70
2022-08-17T19:38:14.952Z,2.60
2022-08-17T19:41:23.392Z,2.60
2022-08-17T19:44:31.518Z,3.20
2022-08-17T19:48:05.071Z,2.70
2022-08-17T19:50:44.747Z,2.90
2022-08-17T19:54:05.528Z,3.20
2022-08-17T19:57:01.738Z,3.00
2022-08-17T20:00:09.917Z,3.10
2022-08-17T20:03:18.113Z,3.00
2022-08-17T20:06:26.047Z,3.30
2022-08-17T20:09:34.118Z,3.00
2022-08-17T20:12:41.996Z,3.40
2022-08-17T20:15:49.557Z,3.70
2022-08-17T20:18:57.767Z,3.40
2022-08-17T20:22:05.341Z,3.00
2022-08-17T20:25:13.853Z,3.20
2022-08-17T20:28:22.045Z,3.40
2022-08-17T20:31:30.970Z,3.30
2022-08-17T20:34:39.387Z,3.60
2022-08-17T20:37:47.283Z,3.80
2022-08-17T20:40:55.094Z,4.20
2022-08-17T20:44:04.708Z,4.60
2022-08-17T20:47:12.622Z,3.70
2022-08-17T20:50:20.429Z,3.70
2022-08-17T20:53:28.390Z,3.90
2022-08-17T20:56:36.654Z,4.10
2022-08-17T20:59:45.102Z,4.20
2022-08-17T21:02:53.074Z,4.20
2022-08-17T21:06:01.338Z,3.90
2022-08-17T21:09:08.983Z,3.90
2022-08-17T21:12:17.121Z,4.50
2022-08-17T21:15:24.690Z,4.70
2022-08-17T21:18:32.953Z,5.40
2022-08-17T21:21:41.294Z,4.80
2022-08-17T21:24:49.283Z,5.10
2022-08-17T21:27:57.069Z,4.90
2022-08-17T21:31:05.741Z,4.70
2022-08-17T21:34:15.497Z,4.50
2022-08-17T21:37:23.713Z,4.20
2022-08-17T21:40:31.840Z,4.60
2022-08-17T21:43:39.665Z,4.00
2022-08-17T21:46:47.623Z,4.20
2022-08-17T21:49:55.573Z,4.90
2022-08-17T21:53:03.450Z,3.70
2022-08-17T21:56:10.944Z,4.10
2022-08-17T21:59:19.179Z,4.50
2022-08-17T22:02:26.997Z,4.10
2022-08-17T22:05:34.881Z,4.20
2022-08-17T22:08:43.082Z,4.20
2022-08-17T22:11:50.540Z,4.20
2022-08-17T22:14:58.730Z,4.30
2022-08-17T22:18:06.563Z,4.20
2022-08-17T22:21:14.133Z,4.20
2022-08-17T22:24:22.054Z,4.40
2022-08-17T22:27:29.962Z,4.50
2022-08-17T22:30:37.698Z,5.10
2022-08-17T22:33:45.504Z,4.50
2022-08-17T22:36:52.932Z,5.00
2022-08-17T22:40:01.162Z,4.60
2022-08-17T22:43:09.038Z,4.20
2022-08-17T22:46:16.475Z,4.80
2022-08-17T22:49:24.732Z,5.00
2022-08-17T22:52:32.723Z,5.00
2022-08-17T22:55:40.643Z,5.10
2022-08-17T22:58:58.796Z,5.10
2022-08-17T23:01:53.975Z,4.70
2022-08-17T23:05:01.787Z,5.40
2022-08-17T23:08:09.630Z,4.80
2022-08-17T23:11:17.052Z,4.60
2022-08-17T23:14:25.256Z,5.20
2022-08-17T23:17:37.213Z,4.80
2022-08-17T23:20:34.225Z,5.50
2022-08-17T23:23:42.242Z,5.20
2022-08-17T23:26:50.158Z,5.20
2022-08-17T23:29:58.365Z,5.60
2022-08-17T23:33:06.608Z,5.50
2022-08-17T23:36:14.479Z,5.70
2022-08-17T23:39:27.653Z,5.70
2022-08-17T23:42:25.449Z,5.50
2022-08-17T23:45:33.704Z,5.20
2022-08-17T23:48:41.320Z,5.20
2022-08-17T23:51:49.225Z,5.10
2022-08-17T23:54:57.559Z,5.20
2022-08-17T23:58:05.484Z,5.40
